createdAt,value
2022-10-17T00:01:11.660Z,100800.31
2022-10-17T00:03:40.814Z,100799.53
2022-10-17T00:06:12.301Z,100800.44
2022-10-17T00:08:42.239Z,100801.34
2022-10-17T00:11:18.588Z,100799.69
2022-10-17T00:13:48.445Z,100781.31
2022-10-17T00:16:24.565Z,100786.50
2022-10-17T00:18:54.386Z,100785.66
2022-10-17T00:21:24.508Z,100788.31
2022-10-17T00:23:53.741Z,100786.63
2022-10-17T00:26:23.523Z,100778.84
2022-10-17T00:28:53.773Z,100778.84
2022-10-17T00:31:26.469Z,100783.22
2022-10-17T00:33:55.002Z,100785.81
2022-10-17T00:36:25.658Z,100786.75
2022-10-17T00:38:57.546Z,100782.28
2022-10-17T00:41:33.574Z,100780.50
2022-10-17T00:44:04.395Z,100782.22
2022-10-17T00:46:36.973Z,100786.66
2022-10-17T00:49:09.040Z,100784.06
2022-10-17T00:51:44.804Z,100790.97
2022-10-17T00:54:16.061Z,100789.31
2022-10-17T00:56:48.509Z,100791.84
2022-10-17T00:59:20.371Z,100781.44
2022-10-17T01:01:58.168Z,100775.25
2022-10-17T01:04:27.885Z,100775.19
2022-10-17T01:06:55.775Z,100769.97
2022-10-17T01:09:24.759Z,100770.81
2022-10-17T01:12:07.532Z,100778.69
2022-10-17T01:14:58.069Z,100764.78
2022-10-17T01:17:36.176Z,100761.25
2022-10-17T01:20:54.231Z,100756.84
2022-10-17T01:23:49.238Z,100751.69
2022-10-17T01:26:27.737Z,100751.50
2022-10-17T01:29:30.445Z,100755.09
2022-10-17T01:32:05.268Z,100747.31
2022-10-17T01:34:40.516Z,100743.88
2022-10-17T01:37:20.192Z,100749.19
2022-10-17T01:39:57.330Z,100738.78
2022-10-17T01:42:33.413Z,100742.31
2022-10-17T01:45:10.571Z,100741.50
2022-10-17T01:47:43.362Z,100733.63
2022-10-17T01:50:20.152Z,100730.97
2022-10-17T01:52:53.849Z,100721.41
2022-10-17T01:55:28.470Z,100734.47
2022-10-17T01:58:08.661Z,100729.19
2022-10-17T02:00:42.586Z,100730.84
2022-10-17T02:03:19.614Z,100732.56
2022-10-17T02:05:50.573Z,100725.63
2022-10-17T02:08:28.254Z,100719.50
2022-10-17T02:11:05.587Z,100715.19
2022-10-17T02:13:52.267Z,100714.38
2022-10-17T02:16:35.964Z,100717.91
2022-10-17T02:19:55.179Z,100714.50
2022-10-17T02:22:40.033Z,100711.84
2022-10-17T02:25:21.664Z,100711.75
2022-10-17T02:28:03.231Z,100713.53
2022-10-17T02:30:36.831Z,100714.41
2022-10-17T02:33:11.448Z,100710.00
2022-10-17T02:35:47.566Z,100712.66
2022-10-17T02:38:18.240Z,100709.16
2022-10-17T02:40:52.866Z,100704.84
2022-10-17T02:43:23.910Z,100709.28
2022-10-17T02:45:54.239Z,100708.44
2022-10-17T02:48:31.121Z,100711.09
2022-10-17T02:51:12.503Z,100715.41
2022-10-17T02:54:01.275Z,100716.28
2022-10-17T02:56:39.686Z,100716.31
2022-10-17T02:59:15.768Z,100720.63
2022-10-17T03:01:44.688Z,100714.53
2022-10-17T03:04:15.377Z,100712.84
2022-10-17T03:06:50.632Z,100711.13
2022-10-17T03:09:19.958Z,100712.88
2022-10-17T03:11:49.202Z,100707.66
2022-10-17T03:14:19.569Z,100704.19
2022-10-17T03:16:47.959Z,100703.34
2022-10-17T03:19:18.892Z,100699.00
2022-10-17T03:21:48.460Z,100705.13
2022-10-17T03:24:16.738Z,100703.38
2022-10-17T03:29:14.857Z,100711.22
2022-10-17T03:31:43.076Z,100702.53
2022-10-17T03:34:12.221Z,100707.75
2022-10-17T03:36:40.179Z,100714.72
2022-10-17T03:39:09.490Z,100716.47
2022-10-17T03:41:37.469Z,100713.81
2022-10-17T03:44:06.339Z,100711.25
2022-10-17T03:46:35.028Z,100713.84
2022-10-17T03:49:03.113Z,100713.84
2022-10-17T03:51:33.738Z,100712.94
2022-10-17T03:54:05.390Z,100716.47
2022-10-17T03:56:34.695Z,100718.22
2022-10-17T03:59:05.653Z,100721.69
2022-10-17T04:01:36.771Z,100718.13
2022-10-17T04:04:07.323Z,100725.13
2022-10-17T04:06:38.091Z,100723.47
2022-10-17T04:09:07.976Z,100729.53
2022-10-17T04:11:54.901Z,100733.88
2022-10-17T04:14:23.979Z,100736.50
2022-10-17T04:16:53.591Z,100733.91
2022-10-17T04:19:22.731Z,100726.97
2022-10-17T04:21:51.485Z,100725.19
2022-10-17T04:24:20.667Z,100733.88
2022-10-17T04:26:59.600Z,100738.25
2022-10-17T04:29:44.485Z,100737.34
2022-10-17T04:32:24.414Z,100739.06
2022-10-17T04:34:58.856Z,100738.22
2022-10-17T04:37:30.506Z,100746.03
2022-10-17T04:40:00.326Z,100742.59
2022-10-17T04:42:33.400Z,100741.81
2022-10-17T04:45:01.312Z,100740.16
2022-10-17T04:47:32.540Z,100723.63
2022-10-17T04:50:01.612Z,100725.34
2022-10-17T04:52:35.181Z,100720.97
2022-10-17T04:55:04.409Z,100739.28
2022-10-17T04:57:36.151Z,100734.13
2022-10-17T05:00:13.305Z,100724.59
2022-10-17T05:02:47.244Z,100723.69
2022-10-17T05:05:16.571Z,100726.31
2022-10-17T05:07:47.127Z,100723.69
2022-10-17T05:10:22.645Z,100727.16
2022-10-17T05:12:55.938Z,100712.34
2022-10-17T05:15:28.637Z,100723.69
2022-10-17T05:17:58.815Z,100720.22
2022-10-17T05:20:30.605Z,100723.69
2022-10-17T05:23:01.657Z,100719.38
2022-10-17T05:25:35.661Z,100727.16
2022-10-17T05:28:06.107Z,100735.97
2022-10-17T05:30:37.589Z,100727.19
2022-10-17T05:33:08.524Z,100728.91
2022-10-17T05:35:36.864Z,100732.44
2022-10-17T05:38:04.932Z,100732.47
2022-10-17T05:40:35.281Z,100742.94
2022-10-17T05:43:07.849Z,100754.25
2022-10-17T05:45:38.475Z,100746.44
2022-10-17T05:48:10.028Z,100749.91
2022-10-17T05:50:39.943Z,100755.16
2022-10-17T05:53:13.271Z,100776.06
2022-10-17T05:55:54.930Z,100770.78
2022-10-17T05:58:49.344Z,100767.31
2022-10-17T06:01:39.977Z,100777.78
2022-10-17T06:04:09.176Z,100772.53
2022-10-17T06:06:39.958Z,100767.25
2022-10-17T06:09:09.302Z,100764.56
2022-10-17T06:11:40.500Z,100765.44
2022-10-17T06:14:10.342Z,100776.88
2022-10-17T06:16:40.377Z,100777.81
2022-10-17T06:19:09.361Z,100770.91
2022-10-17T06:21:42.020Z,100772.66
2022-10-17T06:24:22.178Z,100774.38
2022-10-17T06:26:52.927Z,100776.19
2022-10-17T06:29:28.480Z,100774.50
2022-10-17T06:31:57.797Z,100778.03
2022-10-17T06:34:29.694Z,100792.91
2022-10-17T06:36:58.265Z,100791.25
2022-10-17T06:39:34.888Z,100796.53
2022-10-17T06:42:08.230Z,100806.16
2022-10-17T06:44:49.992Z,100807.84
2022-10-17T06:47:42.663Z,100820.16
2022-10-17T06:50:29.328Z,100818.41
2022-10-17T06:53:20.086Z,100821.06
2022-10-17T06:56:11.350Z,100823.72
2022-10-17T06:59:10.565Z,100827.25
2022-10-17T07:01:46.071Z,100825.53
2022-10-17T07:04:15.860Z,100822.94
2022-10-17T07:06:46.054Z,100829.94
2022-10-17T07:09:21.091Z,100822.19
2022-10-17T07:11:49.155Z,100825.69
2022-10-17T07:14:28.607Z,100816.13
2022-10-17T07:16:58.512Z,100823.13
2022-10-17T07:19:31.989Z,100831.84
2022-10-17T07:21:59.966Z,100834.47
2022-10-17T07:24:29.683Z,100836.22
2022-10-17T07:27:19.693Z,100843.22
2022-10-17T07:30:11.402Z,100838.00
2022-10-17T07:33:04.764Z,100839.72
2022-10-17T07:35:32.952Z,100848.50
2022-10-17T07:38:01.119Z,100847.63
2022-10-17T07:40:29.022Z,100844.16
2022-10-17T07:42:58.387Z,100839.78
2022-10-17T07:45:28.327Z,100845.03
2022-10-17T07:47:58.024Z,100848.56
2022-10-17T07:50:27.750Z,100847.72
2022-10-17T07:52:56.845Z,100838.06
2022-10-17T07:55:25.195Z,100843.34
2022-10-17T07:57:53.385Z,100840.75
2022-10-17T08:00:21.239Z,100837.25
2022-10-17T08:02:50.659Z,100833.72
2022-10-17T08:05:19.076Z,100831.09
2022-10-17T08:07:48.461Z,100833.69
2022-10-17T08:10:17.431Z,100837.16
2022-10-17T08:12:46.383Z,100836.25
2022-10-17T08:15:14.422Z,100837.94
2022-10-17T08:17:42.344Z,100840.53
2022-10-17T08:20:12.266Z,100830.88
2022-10-17T08:22:40.391Z,100838.75
2022-10-17T08:25:11.397Z,100836.06
2022-10-17T08:27:39.379Z,100840.38
2022-10-17T08:30:09.760Z,100829.00
2022-10-17T08:32:37.572Z,100828.09
2022-10-17T08:35:07.380Z,100831.56
2022-10-17T08:37:37.449Z,100835.81
2022-10-17T08:40:26.767Z,100834.06
2022-10-17T08:43:17.599Z,100835.84
2022-10-17T08:45:53.443Z,100830.56
2022-10-17T08:48:25.622Z,100831.38
2022-10-17T08:50:59.196Z,100846.19
2022-10-17T08:53:35.166Z,100845.31
2022-10-17T08:56:19.871Z,100851.31
2022-10-17T08:58:53.129Z,100856.44
2022-10-17T09:01:36.658Z,100849.22
2022-10-17T09:04:52.620Z,100849.91
2022-10-17T09:07:45.320Z,100845.19
2022-10-17T09:10:21.678Z,100854.66
2022-10-17T09:13:19.493Z,100857.97
2022-10-17T09:16:12.495Z,100869.84
2022-10-17T09:18:46.097Z,100860.00
2022-10-17T09:21:25.438Z,100865.25
2022-10-17T09:24:15.287Z,100847.75
2022-10-17T09:26:46.884Z,100848.81
2022-10-17T09:29:23.973Z,100853.88
2022-10-17T09:32:01.466Z,100855.28
2022-10-17T09:34:32.776Z,100857.63
2022-10-17T09:37:04.340Z,100866.38
2022-10-17T09:39:33.342Z,100869.47
2022-10-17T09:42:03.360Z,100887.16
2022-10-17T09:44:40.215Z,100901.09
2022-10-17T09:47:25.822Z,100899.13
2022-10-17T09:49:54.531Z,100892.03
2022-10-17T09:52:29.626Z,100908.41
2022-10-17T09:55:04.340Z,100897.38
2022-10-17T09:57:55.097Z,100899.44
2022-10-17T10:00:28.469Z,100906.75
2022-10-17T10:03:17.547Z,100920.81
2022-10-17T10:06:03.882Z,100917.50
2022-10-17T10:08:35.625Z,100930.56
2022-10-17T10:11:09.631Z,100941.16
2022-10-17T10:13:49.395Z,100925.44
2022-10-17T10:16:30.046Z,100926.56
2022-10-17T10:18:58.961Z,100931.00
2022-10-17T10:21:31.926Z,100933.69
2022-10-17T10:24:12.357Z,100939.34
2022-10-17T10:26:48.949Z,100945.75
2022-10-17T10:29:30.912Z,100947.69
2022-10-17T10:32:11.936Z,100957.38
2022-10-17T10:34:50.448Z,100948.69
2022-10-17T10:37:25.140Z,100973.56
2022-10-17T10:39:59.274Z,100974.94
2022-10-17T10:42:36.694Z,100988.25
2022-10-17T10:45:35.941Z,100996.25
2022-10-17T10:48:22.827Z,101003.47
2022-10-17T10:50:58.972Z,101008.97
2022-10-17T10:53:50.336Z,101006.31
2022-10-17T10:56:26.034Z,101008.25
2022-10-17T10:59:02.316Z,101005.56
2022-10-17T11:01:41.944Z,101009.13
2022-10-17T11:04:36.521Z,101014.81
2022-10-17T11:07:15.799Z,101015.91
2022-10-17T11:10:00.745Z,101013.34
2022-10-17T11:12:36.740Z,101013.38
2022-10-17T11:15:20.393Z,101028.41
2022-10-17T11:17:57.746Z,101031.84
2022-10-17T11:20:40.872Z,101013.31
2022-10-17T11:23:20.825Z,100981.19
2022-10-17T11:25:52.908Z,100984.53
2022-10-17T11:28:24.818Z,101019.78
2022-10-17T11:31:07.103Z,101022.50
2022-10-17T11:33:50.082Z,101033.84
2022-10-17T11:36:27.228Z,101037.28
2022-10-17T11:39:04.640Z,101049.72
2022-10-17T11:41:42.338Z,101049.94
2022-10-17T11:44:21.912Z,101039.13
2022-10-17T11:46:59.191Z,101030.44
2022-10-17T11:49:35.385Z,101025.06
2022-10-17T11:52:44.412Z,101032.16
2022-10-17T11:55:24.554Z,101035.78
2022-10-17T11:58:38.463Z,101037.56
2022-10-17T12:01:17.508Z,101039.63
2022-10-17T12:04:03.254Z,101048.50
2022-10-17T12:06:48.782Z,101045.94
2022-10-17T12:09:35.177Z,101057.56
2022-10-17T12:12:04.813Z,101046.25
2022-10-17T12:14:42.526Z,101038.41
2022-10-17T12:17:39.351Z,101034.09
2022-10-17T12:20:34.163Z,101059.56
2022-10-17T12:23:20.862Z,101057.75
2022-10-17T12:26:04.846Z,101061.25
2022-10-17T12:28:42.466Z,101055.88
2022-10-17T12:31:33.545Z,101065.44
2022-10-17T12:34:04.830Z,101060.16
2022-10-17T12:36:42.170Z,101053.06
2022-10-17T12:39:41.933Z,101055.66
2022-10-17T12:42:50.066Z,101055.75
2022-10-17T12:45:53.938Z,101060.13
2022-10-17T12:49:01.102Z,101061.03
2022-10-17T12:51:37.926Z,101064.63
2022-10-17T12:54:12.829Z,101057.78
2022-10-17T12:56:44.850Z,101063.13
2022-10-17T12:59:20.091Z,101071.00
2022-10-17T13:01:51.401Z,101067.41
2022-10-17T13:04:23.251Z,101069.19
2022-10-17T13:06:57.277Z,101074.56
2022-10-17T13:09:28.940Z,101081.56
2022-10-17T13:12:18.281Z,101085.16
2022-10-17T13:14:52.918Z,101086.00
2022-10-17T13:17:30.566Z,101081.66
2022-10-17T13:19:59.584Z,101090.44
2022-10-17T13:22:32.178Z,101098.44
2022-10-17T13:25:18.754Z,101100.09
2022-10-17T13:27:49.265Z,101105.38
2022-10-17T13:30:32.557Z,101115.03
2022-10-17T13:33:03.740Z,101114.09
2022-10-17T13:35:59.064Z,101114.13
2022-10-17T13:38:39.028Z,101112.38
2022-10-17T13:41:34.838Z,101120.31
2022-10-17T13:44:11.561Z,101121.22
2022-10-17T13:46:43.116Z,101116.81
2022-10-17T13:49:23.254Z,101126.50
2022-10-17T13:51:56.208Z,101121.19
2022-10-17T13:54:35.873Z,101129.13
2022-10-17T13:57:06.792Z,101131.75
2022-10-17T13:59:41.933Z,101133.50
2022-10-17T14:02:16.522Z,101136.97
2022-10-17T14:05:15.041Z,101134.38
2022-10-17T14:08:09.958Z,101132.59
2022-10-17T14:10:33.805Z,101139.63
2022-10-17T14:13:04.712Z,101141.38
2022-10-17T14:15:38.744Z,101135.22
2022-10-17T14:18:14.673Z,101131.69
2022-10-17T14:21:29.238Z,101129.94
2022-10-17T14:23:40.764Z,101125.56
2022-10-17T14:26:14.912Z,101132.66
2022-10-17T14:29:04.640Z,101142.31
2022-10-17T14:31:35.605Z,101142.38
2022-10-17T14:34:05.682Z,101162.59
2022-10-17T14:36:38.349Z,101161.72
2022-10-17T14:39:18.543Z,101163.44
2022-10-17T14:41:47.992Z,101166.97
2022-10-17T14:44:24.038Z,101166.94
2022-10-17T14:46:59.303Z,101166.09
2022-10-17T14:49:36.288Z,101153.78
2022-10-17T14:52:29.113Z,101168.75
2022-10-17T14:55:00.965Z,101166.97
2022-10-17T14:57:43.800Z,101170.53
2022-10-17T15:00:17.170Z,101182.84
2022-10-17T15:02:47.198Z,101174.06
2022-10-17T15:05:16.841Z,101177.59
2022-10-17T15:07:44.878Z,101181.13
2022-10-17T15:10:31.888Z,101193.44
2022-10-17T15:13:26.753Z,101192.59
2022-10-17T15:15:51.812Z,101207.50
2022-10-17T15:18:19.837Z,101211.88
2022-10-17T15:20:55.296Z,101211.03
2022-10-17T15:23:32.573Z,101226.81
2022-10-17T15:26:01.909Z,101226.84
2022-10-17T15:28:29.793Z,101229.47
2022-10-17T15:30:57.577Z,101225.94
2022-10-17T15:33:25.297Z,101242.63
2022-10-17T15:35:55.679Z,101242.59
2022-10-17T15:38:23.488Z,101248.72
2022-10-17T15:40:51.913Z,101247.88
2022-10-17T15:43:20.251Z,101254.88
2022-10-17T15:45:51.145Z,101266.28
2022-10-17T15:48:28.321Z,101270.69
2022-10-17T15:50:57.862Z,101274.16
2022-10-17T15:53:25.856Z,101265.41
2022-10-17T15:55:53.953Z,101267.13
2022-10-17T15:58:21.821Z,101277.66
2022-10-17T16:00:50.713Z,101277.66
2022-10-17T16:03:18.601Z,101283.78
2022-10-17T16:05:46.887Z,101281.13
2022-10-17T16:08:15.972Z,101277.63
2022-10-17T16:10:43.727Z,101269.75
2022-10-17T16:13:17.679Z,101282.91
2022-10-17T16:15:45.709Z,101282.03
2022-10-17T16:18:13.523Z,101276.72
2022-10-17T16:20:41.477Z,101281.13
2022-10-17T16:23:12.977Z,101279.38
2022-10-17T16:25:42.375Z,101277.63
2022-10-17T16:28:11.806Z,101275.84
2022-10-17T16:30:45.020Z,101287.25
2022-10-17T16:33:13.044Z,101299.50
2022-10-17T16:35:41.035Z,101296.88
2022-10-17T16:38:08.850Z,101300.41
2022-10-17T16:40:40.301Z,101296.94
2022-10-17T16:43:12.113Z,101303.94
2022-10-17T16:45:41.543Z,101309.19
2022-10-17T16:48:10.625Z,101316.19
2022-10-17T16:50:40.350Z,101316.19
2022-10-17T16:53:08.381Z,101317.91
2022-10-17T16:55:36.711Z,101332.84
2022-10-17T16:58:05.842Z,101325.00
2022-10-17T17:00:39.333Z,101324.97
2022-10-17T17:03:07.356Z,101329.38
2022-10-17T17:05:35.256Z,101324.97
2022-10-17T17:08:04.169Z,101328.47
2022-10-17T17:10:32.240Z,101335.47
2022-10-17T17:13:01.645Z,101339.88
2022-10-17T17:15:29.829Z,101336.38
2022-10-17T17:18:04.027Z,101349.50
2022-10-17T17:20:33.932Z,101351.22
2022-10-17T17:23:01.857Z,101359.97
2022-10-17T17:25:31.023Z,101363.50
2022-10-17T17:27:58.764Z,101360.00
2022-10-17T17:30:29.572Z,101368.75
2022-10-17T17:32:59.937Z,101368.72
2022-10-17T17:35:31.940Z,101370.47
2022-10-17T17:38:03.083Z,101380.06
2022-10-17T17:40:31.015Z,101370.34
2022-10-17T17:45:34.959Z,101377.41
2022-10-17T17:48:14.610Z,101373.03
2022-10-17T17:50:44.594Z,101368.63
2022-10-17T17:53:15.463Z,101377.34
2022-10-17T17:55:43.814Z,101371.22
2022-10-17T17:58:12.426Z,101369.41
2022-10-17T18:00:41.701Z,101378.97
2022-10-17T18:03:12.333Z,101375.44
2022-10-17T18:05:40.344Z,101363.19
2022-10-17T18:08:08.521Z,101371.97
2022-10-17T18:10:42.966Z,101374.53
2022-10-17T18:13:10.929Z,101379.72
2022-10-17T18:15:46.185Z,101389.31
2022-10-17T18:18:30.834Z,101378.81
2022-10-17T18:21:02.825Z,101382.25
2022-10-17T18:23:36.125Z,101380.50
2022-10-17T18:26:07.151Z,101391.00
2022-10-17T18:28:36.018Z,101390.16
2022-10-17T18:31:09.579Z,101395.38
2022-10-17T18:33:39.670Z,101392.69
2022-10-17T18:36:11.448Z,101392.69
2022-10-17T18:38:39.724Z,101403.19
2022-10-17T18:41:11.705Z,101402.25
2022-10-17T18:43:42.153Z,101410.09
2022-10-17T18:46:14.709Z,101418.72
2022-10-17T18:48:47.827Z,101419.56
2022-10-17T18:51:19.647Z,101416.97
2022-10-17T18:53:50.591Z,101417.75
2022-10-17T18:56:19.972Z,101418.50
2022-10-17T18:58:47.995Z,101436.78
2022-10-17T19:01:18.685Z,101434.16
2022-10-17T19:03:50.505Z,101432.41
2022-10-17T19:06:31.619Z,101429.84
2022-10-17T19:09:00.984Z,101429.88
2022-10-17T19:11:31.529Z,101419.38
2022-10-17T19:14:02.197Z,101427.25
2022-10-17T19:16:33.141Z,101427.38
2022-10-17T19:19:06.675Z,101419.53
2022-10-17T19:21:35.096Z,101429.13
2022-10-17T19:24:07.311Z,101429.19
2022-10-17T19:26:37.423Z,101438.84
2022-10-17T19:29:05.902Z,101441.47
2022-10-17T19:31:36.263Z,101445.00
2022-10-17T19:34:05.447Z,101450.19
2022-10-17T19:36:35.286Z,101452.00
2022-10-17T19:39:06.609Z,101445.81
2022-10-17T19:41:36.258Z,101452.81
2022-10-17T19:44:04.230Z,101453.50
2022-10-17T19:46:34.014Z,101458.69
2022-10-17T19:49:03.161Z,101461.28
2022-10-17T19:51:33.527Z,101456.00
2022-10-17T19:54:01.900Z,101462.00
2022-10-17T19:56:32.586Z,101455.06
2022-10-17T19:59:00.388Z,101454.19
2022-10-17T20:01:32.809Z,101453.34
2022-10-17T20:04:01.309Z,101462.09
2022-10-17T20:06:29.181Z,101466.53
2022-10-17T20:08:58.338Z,101459.53
2022-10-17T20:11:28.560Z,101465.75
2022-10-17T20:13:57.420Z,101452.66
2022-10-17T20:16:28.423Z,101458.75
2022-10-17T20:19:02.836Z,101460.47
2022-10-17T20:21:39.298Z,101472.66
2022-10-17T20:24:12.470Z,101473.50
2022-10-17T20:26:42.694Z,101477.88
2022-10-17T20:29:14.954Z,101477.91
2022-10-17T20:31:45.436Z,101480.59
2022-10-17T20:34:16.117Z,101490.16
2022-10-17T20:36:44.239Z,101497.09
2022-10-17T20:39:15.998Z,101493.69
2022-10-17T20:41:45.822Z,101499.84
2022-10-17T20:44:13.743Z,101510.31
2022-10-17T20:46:48.770Z,101514.72
2022-10-17T20:49:28.583Z,101516.56
2022-10-17T20:51:56.451Z,101518.22
2022-10-17T20:54:28.422Z,101518.19
2022-10-17T20:56:58.691Z,101521.69
2022-10-17T20:59:29.301Z,101524.31
2022-10-17T21:01:57.110Z,101530.53
2022-10-17T21:04:45.521Z,101533.16
2022-10-17T21:07:12.559Z,101532.19
2022-10-17T21:09:41.624Z,101527.09
2022-10-17T21:12:10.637Z,101528.00
2022-10-17T21:14:38.557Z,101530.69
2022-10-17T21:17:07.811Z,101527.22
2022-10-17T21:19:36.174Z,101530.78
2022-10-17T21:22:04.055Z,101525.56
2022-10-17T21:24:32.603Z,101522.16
2022-10-17T21:27:01.979Z,101514.28
2022-10-17T21:29:29.898Z,101509.94
2022-10-17T21:31:57.862Z,101513.41
2022-10-17T21:34:28.211Z,101522.88
2022-10-17T21:36:56.134Z,101535.91
2022-10-17T21:39:24.891Z,101532.47
2022-10-17T21:41:55.793Z,101536.88
2022-10-17T21:44:27.530Z,101534.31
2022-10-17T21:46:56.027Z,101533.47
2022-10-17T21:49:25.517Z,101532.63
2022-10-17T21:51:54.148Z,101530.78
2022-10-17T21:54:23.539Z,101530.78
2022-10-17T21:56:51.948Z,101531.69
2022-10-17T21:59:19.952Z,101537.75
2022-10-17T22:01:49.348Z,101543.84
2022-10-17T22:04:19.629Z,101542.88
2022-10-17T22:06:51.227Z,101553.38
2022-10-17T22:09:24.575Z,101548.06
2022-10-17T22:11:55.666Z,101552.53
2022-10-17T22:14:27.531Z,101552.47
2022-10-17T22:16:57.069Z,101551.63
2022-10-17T22:19:27.298Z,101553.34
2022-10-17T22:21:56.325Z,101556.84
2022-10-17T22:24:26.914Z,101554.41
2022-10-17T22:26:55.470Z,101555.31
2022-10-17T22:29:23.629Z,101562.31
2022-10-17T22:31:51.580Z,101561.44
2022-10-17T22:34:20.917Z,101565.84
2022-10-17T22:36:48.913Z,101565.84
2022-10-17T22:39:17.190Z,101565.91
2022-10-17T22:41:45.098Z,101559.00
2022-10-17T22:44:13.749Z,101554.72
2022-10-17T22:46:42.076Z,101552.13
2022-10-17T22:49:10.344Z,101552.13
2022-10-17T22:51:40.101Z,101548.63
2022-10-17T22:54:08.385Z,101546.94
2022-10-17T22:56:36.708Z,101546.84
2022-10-17T22:59:04.757Z,101552.97
2022-10-17T23:01:32.747Z,101552.97
2022-10-17T23:04:00.724Z,101559.06
2022-10-17T23:06:29.539Z,101557.31
2022-10-17T23:08:58.978Z,101560.69
2022-10-17T23:11:26.961Z,101558.13
2022-10-17T23:13:55.412Z,101557.28
2022-10-17T23:16:23.333Z,101556.34
2022-10-17T23:18:51.300Z,101548.44
2022-10-17T23:21:19.602Z,101546.75
2022-10-17T23:23:47.737Z,101550.28
2022-10-17T23:26:17.042Z,101560.88
2022-10-17T23:28:45.041Z,101555.63
2022-10-17T23:31:16.749Z,101548.69
2022-10-17T23:33:47.330Z,101553.97
2022-10-17T23:36:18.245Z,101560.97
2022-10-17T23:38:48.467Z,101561.72
2022-10-17T23:41:17.861Z,101569.53
2022-10-17T23:43:47.383Z,101574.88
2022-10-17T23:46:17.642Z,101578.28
2022-10-17T23:48:45.866Z,101576.59
2022-10-17T23:51:14.144Z,101566.94
2022-10-17T23:53:42.519Z,101566.97
2022-10-17T23:56:13.524Z,101565.19
2022-10-17T23:58:42.838Z,101574.75
